sensor_id;sensor_type;location;lat;lon;timestamp;P1;durP1;ratioP1;P2;durP2;ratioP2
75171;SDS011;63750;52.418;20.742;2022-12-05T00:01:26;27.00;;;23.40;;
75171;SDS011;63750;52.418;20.742;2022-12-05T00:03:57;28.40;;;22.70;;
75171;SDS011;63750;52.418;20.742;2022-12-05T00:06:27;27.00;;;22.20;;
75171;SDS011;63750;52.418;20.742;2022-12-05T00:08:59;28.30;;;22.00;;
75171;SDS011;63750;52.418;20.742;2022-12-05T00:11:29;24.30;;;20.90;;
75171;SDS011;63750;52.418;20.742;2022-12-05T00:14:02;26.30;;;21.00;;
75171;SDS011;63750;52.418;20.742;2022-12-05T00:16:34;26.80;;;22.10;;
75171;SDS011;63750;52.418;20.742;2022-12-05T00:19:05;27.30;;;21.80;;
75171;SDS011;63750;52.418;20.742;2022-12-05T00:21:37;29.40;;;22.60;;
75171;SDS011;63750;52.418;20.742;2022-12-05T00:24:11;26.40;;;22.50;;
75171;SDS011;63750;52.418;20.742;2022-12-05T00:26:40;26.90;;;21.70;;
75171;SDS011;63750;52.418;20.742;2022-12-05T00:29:11;28.50;;;21.70;;
75171;SDS011;63750;52.418;20.742;2022-12-05T00:31:40;25.70;;;21.70;;
75171;SDS011;63750;52.418;20.742;2022-12-05T00:34:09;27.50;;;22.60;;
75171;SDS011;63750;52.418;20.742;2022-12-05T00:36:37;29.20;;;22.70;;
75171;SDS011;63750;52.418;20.742;2022-12-05T00:39:08;27.60;;;22.40;;
75171;SDS011;63750;52.418;20.742;2022-12-05T00:41:37;28.90;;;23.00;;
75171;SDS011;63750;52.418;20.742;2022-12-05T00:44:09;28.10;;;22.10;;
75171;SDS011;63750;52.418;20.742;2022-12-05T00:46:40;28.30;;;23.30;;
75171;SDS011;63750;52.418;20.742;2022-12-05T00:49:10;25.00;;;21.40;;
75171;SDS011;63750;52.418;20.742;2022-12-05T00:51:41;28.00;;;21.70;;
75171;SDS011;63750;52.418;20.742;2022-12-05T00:54:12;29.70;;;24.10;;
75171;SDS011;63750;52.418;20.742;2022-12-05T00:56:42;26.70;;;21.80;;
75171;SDS011;63750;52.418;20.742;2022-12-05T00:59:13;27.40;;;22.80;;
75171;SDS011;63750;52.418;20.742;2022-12-05T01:01:44;26.40;;;21.30;;
75171;SDS011;63750;52.418;20.742;2022-12-05T01:04:15;28.00;;;23.40;;
75171;SDS011;63750;52.418;20.742;2022-12-05T01:06:45;29.60;;;24.00;;
75171;SDS011;63750;52.418;20.742;2022-12-05T01:09:17;30.60;;;24.40;;
75171;SDS011;63750;52.418;20.742;2022-12-05T01:11:46;27.10;;;22.90;;
75171;SDS011;63750;52.418;20.742;2022-12-05T01:14:17;26.70;;;22.60;;
75171;SDS011;63750;52.418;20.742;2022-12-05T01:16:49;31.30;;;24.40;;
75171;SDS011;63750;52.418;20.742;2022-12-05T01:19:20;28.90;;;24.40;;
75171;SDS011;63750;52.418;20.742;2022-12-05T01:21:51;31.00;;;24.20;;
75171;SDS011;63750;52.418;20.742;2022-12-05T01:24:21;29.70;;;23.90;;
75171;SDS011;63750;52.418;20.742;2022-12-05T01:26:52;30.50;;;24.10;;
75171;SDS011;63750;52.418;20.742;2022-12-05T01:29:21;27.80;;;22.00;;
75171;SDS011;63750;52.418;20.742;2022-12-05T01:31:51;26.60;;;21.20;;
75171;SDS011;63750;52.418;20.742;2022-12-05T01:34:21;28.50;;;22.70;;
75171;SDS011;63750;52.418;20.742;2022-12-05T01:36:52;28.30;;;22.00;;
75171;SDS011;63750;52.418;20.742;2022-12-05T01:39:20;28.10;;;22.70;;
75171;SDS011;63750;52.418;20.742;2022-12-05T01:41:49;27.30;;;22.70;;
75171;SDS011;63750;52.418;20.742;2022-12-05T01:47:22;30.50;;;22.90;;
75171;SDS011;63750;52.418;20.742;2022-12-05T01:49:54;29.40;;;23.10;;
75171;SDS011;63750;52.418;20.742;2022-12-05T01:52:24;27.10;;;22.00;;
75171;SDS011;63750;52.418;20.742;2022-12-05T01:54:59;30.60;;;23.70;;
75171;SDS011;63750;52.418;20.742;2022-12-05T01:57:31;29.40;;;23.10;;
75171;SDS011;63750;52.418;20.742;2022-12-05T02:00:02;29.50;;;23.20;;
75171;SDS011;63750;52.418;20.742;2022-12-05T02:02:35;26.90;;;22.20;;
75171;SDS011;63750;52.418;20.742;2022-12-05T02:05:06;29.20;;;22.70;;
75171;SDS011;63750;52.418;20.742;2022-12-05T02:07:39;27.70;;;22.80;;
75171;SDS011;63750;52.418;20.742;2022-12-05T02:10:10;28.00;;;22.70;;
75171;SDS011;63750;52.418;20.742;2022-12-05T02:12:40;30.10;;;24.10;;
75171;SDS011;63750;52.418;20.742;2022-12-05T02:15:30;27.40;;;22.40;;
75171;SDS011;63750;52.418;20.742;2022-12-05T02:18:10;28.40;;;23.50;;
75171;SDS011;63750;52.418;20.742;2022-12-05T02:20:56;28.10;;;23.00;;
75171;SDS011;63750;52.418;20.742;2022-12-05T02:26:57;29.10;;;24.00;;
75171;SDS011;63750;52.418;20.742;2022-12-05T02:35:29;36.60;;;27.10;;
75171;SDS011;63750;52.418;20.742;2022-12-05T02:38:10;32.40;;;25.30;;
75171;SDS011;63750;52.418;20.742;2022-12-05T02:40:45;30.30;;;25.70;;
75171;SDS011;63750;52.418;20.742;2022-12-05T02:43:24;38.20;;;28.00;;
75171;SDS011;63750;52.418;20.742;2022-12-05T02:46:01;34.00;;;26.70;;
75171;SDS011;63750;52.418;20.742;2022-12-05T02:48:34;37.40;;;29.20;;
75171;SDS011;63750;52.418;20.742;2022-12-05T02:51:04;40.10;;;30.30;;
75171;SDS011;63750;52.418;20.742;2022-12-05T02:53:36;39.60;;;28.40;;
75171;SDS011;63750;52.418;20.742;2022-12-05T02:56:06;36.90;;;28.70;;
75171;SDS011;63750;52.418;20.742;2022-12-05T02:58:38;34.30;;;26.80;;
75171;SDS011;63750;52.418;20.742;2022-12-05T03:01:13;34.50;;;27.20;;
75171;SDS011;63750;52.418;20.742;2022-12-05T03:03:44;34.50;;;25.50;;
75171;SDS011;63750;52.418;20.742;2022-12-05T03:06:13;32.80;;;24.90;;
75171;SDS011;63750;52.418;20.742;2022-12-05T03:08:47;29.20;;;25.10;;
75171;SDS011;63750;52.418;20.742;2022-12-05T03:11:21;30.30;;;24.00;;
75171;SDS011;63750;52.418;20.742;2022-12-05T03:13:54;28.20;;;23.70;;
75171;SDS011;63750;52.418;20.742;2022-12-05T03:16:28;27.10;;;22.80;;
75171;SDS011;63750;52.418;20.742;2022-12-05T03:19:04;27.40;;;23.80;;
75171;SDS011;63750;52.418;20.742;2022-12-05T03:21:39;28.30;;;22.00;;
75171;SDS011;63750;52.418;20.742;2022-12-05T03:24:15;24.40;;;21.70;;
75171;SDS011;63750;52.418;20.742;2022-12-05T03:26:47;27.20;;;23.00;;
75171;SDS011;63750;52.418;20.742;2022-12-05T03:29:24;25.40;;;22.60;;
75171;SDS011;63750;52.418;20.742;2022-12-05T03:31:59;25.30;;;22.40;;
75171;SDS011;63750;52.418;20.742;2022-12-05T03:34:45;28.00;;;22.90;;
75171;SDS011;63750;52.418;20.742;2022-12-05T03:37:26;23.70;;;20.70;;
75171;SDS011;63750;52.418;20.742;2022-12-05T03:40:05;23.50;;;21.00;;
75171;SDS011;63750;52.418;20.742;2022-12-05T03:42:41;26.30;;;21.40;;
75171;SDS011;63750;52.418;20.742;2022-12-05T03:45:21;27.60;;;22.20;;
75171;SDS011;63750;52.418;20.742;2022-12-05T03:47:58;23.50;;;20.60;;
75171;SDS011;63750;52.418;20.742;2022-12-05T03:50:37;26.30;;;21.40;;
75171;SDS011;63750;52.418;20.742;2022-12-05T03:53:10;25.10;;;21.40;;
75171;SDS011;63750;52.418;20.742;2022-12-05T03:55:44;25.30;;;21.60;;
75171;SDS011;63750;52.418;20.742;2022-12-05T03:58:21;26.40;;;22.30;;
75171;SDS011;63750;52.418;20.742;2022-12-05T04:00:56;24.00;;;21.30;;
75171;SDS011;63750;52.418;20.742;2022-12-05T04:03:29;26.20;;;22.20;;
75171;SDS011;63750;52.418;20.742;2022-12-05T04:06:03;27.40;;;23.00;;
75171;SDS011;63750;52.418;20.742;2022-12-05T04:08:40;26.30;;;22.40;;
75171;SDS011;63750;52.418;20.742;2022-12-05T04:11:15;27.40;;;23.10;;
75171;SDS011;63750;52.418;20.742;2022-12-05T04:13:49;28.20;;;23.10;;
75171;SDS011;63750;52.418;20.742;2022-12-05T04:16:22;26.40;;;22.50;;
75171;SDS011;63750;52.418;20.742;2022-12-05T04:18:56;27.60;;;23.50;;
75171;SDS011;63750;52.418;20.742;2022-12-05T04:21:30;28.80;;;22.50;;
75171;SDS011;63750;52.418;20.742;2022-12-05T04:24:04;26.40;;;22.80;;
75171;SDS011;63750;52.418;20.742;2022-12-05T04:26:37;27.30;;;22.80;;
75171;SDS011;63750;52.418;20.742;2022-12-05T04:29:13;26.10;;;22.20;;
75171;SDS011;63750;52.418;20.742;2022-12-05T04:31:54;27.60;;;24.00;;
75171;SDS011;63750;52.418;20.742;2022-12-05T04:34:30;26.40;;;22.00;;
75171;SDS011;63750;52.418;20.742;2022-12-05T04:37:02;28.50;;;23.50;;
75171;SDS011;63750;52.418;20.742;2022-12-05T04:39:38;29.50;;;22.80;;
75171;SDS011;63750;52.418;20.742;2022-12-05T04:42:14;26.50;;;23.00;;
75171;SDS011;63750;52.418;20.742;2022-12-05T04:44:46;26.60;;;23.20;;
75171;SDS011;63750;52.418;20.742;2022-12-05T04:47:19;25.40;;;21.80;;
75171;SDS011;63750;52.418;20.742;2022-12-05T04:49:51;24.80;;;21.50;;
75171;SDS011;63750;52.418;20.742;2022-12-05T04:52:22;23.30;;;20.20;;
75171;SDS011;63750;52.418;20.742;2022-12-05T04:54:55;21.70;;;18.90;;
75171;SDS011;63750;52.418;20.742;2022-12-05T04:57:30;23.30;;;19.50;;
75171;SDS011;63750;52.418;20.742;2022-12-05T05:00:04;23.80;;;20.00;;
75171;SDS011;63750;52.418;20.742;2022-12-05T05:02:37;22.50;;;19.70;;
75171;SDS011;63750;52.418;20.742;2022-12-05T05:05:09;21.80;;;18.90;;
75171;SDS011;63750;52.418;20.742;2022-12-05T05:07:45;23.20;;;20.40;;
75171;SDS011;63750;52.418;20.742;2022-12-05T05:10:15;24.40;;;20.30;;
75171;SDS011;63750;52.418;20.742;2022-12-05T05:12:47;23.30;;;20.40;;
75171;SDS011;63750;52.418;20.742;2022-12-05T05:15:16;23.00;;;19.80;;
75171;SDS011;63750;52.418;20.742;2022-12-05T05:17:44;23.20;;;18.70;;
75171;SDS011;63750;52.418;20.742;2022-12-05T05:20:13;23.30;;;20.00;;
75171;SDS011;63750;52.418;20.742;2022-12-05T05:22:42;21.90;;;19.50;;
75171;SDS011;63750;52.418;20.742;2022-12-05T05:25:13;22.30;;;19.90;;
75171;SDS011;63750;52.418;20.742;2022-12-05T05:27:46;23.00;;;18.90;;
75171;SDS011;63750;52.418;20.742;2022-12-05T05:30:15;22.80;;;19.60;;
75171;SDS011;63750;52.418;20.742;2022-12-05T05:32:46;22.20;;;19.00;;
75171;SDS011;63750;52.418;20.742;2022-12-05T05:35:16;23.60;;;19.60;;
75171;SDS011;63750;52.418;20.742;2022-12-05T05:37:48;22.40;;;18.50;;
75171;SDS011;63750;52.418;20.742;2022-12-05T05:40:17;20.40;;;18.20;;
75171;SDS011;63750;52.418;20.742;2022-12-05T05:42:47;20.60;;;18.10;;
75171;SDS011;63750;52.418;20.742;2022-12-05T05:45:17;21.70;;;19.10;;
75171;SDS011;63750;52.418;20.742;2022-12-05T05:47:48;21.80;;;19.00;;
75171;SDS011;63750;52.418;20.742;2022-12-05T05:50:18;21.10;;;18.30;;
75171;SDS011;63750;52.418;20.742;2022-12-05T05:52:48;24.40;;;19.50;;
75171;SDS011;63750;52.418;20.742;2022-12-05T05:55:17;23.90;;;19.30;;
75171;SDS011;63750;52.418;20.742;2022-12-05T05:57:46;24.40;;;20.40;;
75171;SDS011;63750;52.418;20.742;2022-12-05T06:00:14;21.40;;;18.20;;
75171;SDS011;63750;52.418;20.742;2022-12-05T06:02:43;22.40;;;19.70;;
75171;SDS011;63750;52.418;20.742;2022-12-05T06:05:12;20.70;;;18.50;;
75171;SDS011;63750;52.418;20.742;2022-12-05T06:07:40;22.00;;;18.70;;
75171;SDS011;63750;52.418;20.742;2022-12-05T06:10:08;20.70;;;18.60;;
75171;SDS011;63750;52.418;20.742;2022-12-05T06:12:37;20.70;;;18.50;;
75171;SDS011;63750;52.418;20.742;2022-12-05T06:15:06;21.00;;;18.20;;
75171;SDS011;63750;52.418;20.742;2022-12-05T06:17:35;22.10;;;18.50;;
75171;SDS011;63750;52.418;20.742;2022-12-05T06:20:05;21.30;;;18.10;;
75171;SDS011;63750;52.418;20.742;2022-12-05T06:22:34;21.40;;;18.60;;
75171;SDS011;63750;52.418;20.742;2022-12-05T06:25:03;21.80;;;18.70;;
75171;SDS011;63750;52.418;20.742;2022-12-05T06:27:32;22.50;;;18.50;;
75171;SDS011;63750;52.418;20.742;2022-12-05T06:30:00;22.50;;;19.50;;
75171;SDS011;63750;52.418;20.742;2022-12-05T06:32:29;23.00;;;18.70;;
75171;SDS011;63750;52.418;20.742;2022-12-05T06:34:58;24.10;;;20.30;;
75171;SDS011;63750;52.418;20.742;2022-12-05T06:37:26;23.40;;;19.50;;
75171;SDS011;63750;52.418;20.742;2022-12-05T06:39:55;20.90;;;18.70;;
75171;SDS011;63750;52.418;20.742;2022-12-05T06:42:24;20.90;;;18.60;;
75171;SDS011;63750;52.418;20.742;2022-12-05T06:44:52;22.40;;;18.90;;
75171;SDS011;63750;52.418;20.742;2022-12-05T06:47:21;21.80;;;19.50;;
75171;SDS011;63750;52.418;20.742;2022-12-05T06:49:50;21.60;;;18.90;;
75171;SDS011;63750;52.418;20.742;2022-12-05T06:52:19;22.30;;;18.40;;
75171;SDS011;63750;52.418;20.742;2022-12-05T06:54:48;21.20;;;19.00;;
75171;SDS011;63750;52.418;20.742;2022-12-05T06:57:17;21.10;;;18.60;;
75171;SDS011;63750;52.418;20.742;2022-12-05T06:59:46;21.60;;;19.10;;
75171;SDS011;63750;52.418;20.742;2022-12-05T07:02:15;22.70;;;18.80;;
75171;SDS011;63750;52.418;20.742;2022-12-05T07:04:44;23.20;;;19.70;;
75171;SDS011;63750;52.418;20.742;2022-12-05T07:07:12;23.10;;;19.50;;
75171;SDS011;63750;52.418;20.742;2022-12-05T07:09:41;22.90;;;19.70;;
75171;SDS011;63750;52.418;20.742;2022-12-05T07:12:10;21.60;;;19.20;;
75171;SDS011;63750;52.418;20.742;2022-12-05T07:14:40;21.50;;;18.70;;
75171;SDS011;63750;52.418;20.742;2022-12-05T07:17:10;22.10;;;19.70;;
75171;SDS011;63750;52.418;20.742;2022-12-05T07:19:40;24.20;;;19.70;;
75171;SDS011;63750;52.418;20.742;2022-12-05T07:22:09;23.70;;;19.20;;
75171;SDS011;63750;52.418;20.742;2022-12-05T07:24:39;23.30;;;19.40;;
75171;SDS011;63750;52.418;20.742;2022-12-05T07:27:07;22.90;;;19.10;;
75171;SDS011;63750;52.418;20.742;2022-12-05T07:29:36;21.80;;;18.90;;
75171;SDS011;63750;52.418;20.742;2022-12-05T07:32:07;23.00;;;18.90;;
75171;SDS011;63750;52.418;20.742;2022-12-05T07:34:37;23.50;;;19.80;;
75171;SDS011;63750;52.418;20.742;2022-12-05T07:37:06;22.50;;;19.30;;
75171;SDS011;63750;52.418;20.742;2022-12-05T07:39:34;24.70;;;20.90;;
75171;SDS011;63750;52.418;20.742;2022-12-05T07:42:03;25.30;;;20.90;;
75171;SDS011;63750;52.418;20.742;2022-12-05T07:44:33;22.60;;;20.00;;
75171;SDS011;63750;52.418;20.742;2022-12-05T07:47:03;22.60;;;20.20;;
75171;SDS011;63750;52.418;20.742;2022-12-05T07:49:33;25.90;;;20.40;;
75171;SDS011;63750;52.418;20.742;2022-12-05T07:52:01;25.40;;;21.10;;
75171;SDS011;63750;52.418;20.742;2022-12-05T07:54:33;26.40;;;22.10;;
75171;SDS011;63750;52.418;20.742;2022-12-05T07:57:03;25.40;;;21.00;;
75171;SDS011;63750;52.418;20.742;2022-12-05T07:59:32;26.30;;;21.80;;
75171;SDS011;63750;52.418;20.742;2022-12-05T08:02:03;27.70;;;22.00;;
75171;SDS011;63750;52.418;20.742;2022-12-05T08:04:32;28.10;;;22.60;;
75171;SDS011;63750;52.418;20.742;2022-12-05T08:07:02;26.10;;;21.10;;
75171;SDS011;63750;52.418;20.742;2022-12-05T08:09:30;31.10;;;22.90;;
75171;SDS011;63750;52.418;20.742;2022-12-05T08:12:00;27.60;;;22.10;;
75171;SDS011;63750;52.418;20.742;2022-12-05T08:14:29;28.30;;;22.90;;
75171;SDS011;63750;52.418;20.742;2022-12-05T08:16:58;29.10;;;23.00;;
75171;SDS011;63750;52.418;20.742;2022-12-05T08:19:27;25.80;;;21.70;;
75171;SDS011;63750;52.418;20.742;2022-12-05T08:21:55;27.20;;;22.30;;
75171;SDS011;63750;52.418;20.742;2022-12-05T08:24:24;25.50;;;22.00;;
75171;SDS011;63750;52.418;20.742;2022-12-05T08:26:52;25.80;;;21.70;;
75171;SDS011;63750;52.418;20.742;2022-12-05T08:29:22;25.10;;;22.40;;
75171;SDS011;63750;52.418;20.742;2022-12-05T08:31:50;27.20;;;22.20;;
75171;SDS011;63750;52.418;20.742;2022-12-05T08:34:19;25.30;;;21.70;;
75171;SDS011;63750;52.418;20.742;2022-12-05T08:36:50;28.20;;;23.10;;
75171;SDS011;63750;52.418;20.742;2022-12-05T08:39:19;27.30;;;22.70;;
75171;SDS011;63750;52.418;20.742;2022-12-05T08:41:49;26.50;;;22.50;;
75171;SDS011;63750;52.418;20.742;2022-12-05T08:44:18;27.30;;;23.00;;
75171;SDS011;63750;52.418;20.742;2022-12-05T08:46:47;29.50;;;23.50;;
75171;SDS011;63750;52.418;20.742;2022-12-05T08:49:17;28.00;;;22.10;;
75171;SDS011;63750;52.418;20.742;2022-12-05T08:51:45;24.70;;;21.60;;
75171;SDS011;63750;52.418;20.742;2022-12-05T08:54:14;27.30;;;23.50;;
75171;SDS011;63750;52.418;20.742;2022-12-05T08:56:43;27.90;;;21.80;;
75171;SDS011;63750;52.418;20.742;2022-12-05T08:59:11;27.10;;;22.20;;
75171;SDS011;63750;52.418;20.742;2022-12-05T09:01:39;27.50;;;22.20;;
75171;SDS011;63750;52.418;20.742;2022-12-05T09:04:10;27.80;;;22.50;;
75171;SDS011;63750;52.418;20.742;2022-12-05T09:06:40;25.20;;;22.40;;
75171;SDS011;63750;52.418;20.742;2022-12-05T09:09:09;28.80;;;23.10;;
75171;SDS011;63750;52.418;20.742;2022-12-05T09:11:40;26.20;;;23.00;;
75171;SDS011;63750;52.418;20.742;2022-12-05T09:14:12;27.50;;;23.60;;
75171;SDS011;63750;52.418;20.742;2022-12-05T09:16:42;30.40;;;23.80;;
75171;SDS011;63750;52.418;20.742;2022-12-05T09:19:14;29.80;;;23.30;;
75171;SDS011;63750;52.418;20.742;2022-12-05T09:21:45;28.90;;;23.90;;
75171;SDS011;63750;52.418;20.742;2022-12-05T09:24:15;30.50;;;24.10;;
75171;SDS011;63750;52.418;20.742;2022-12-05T09:26:46;32.70;;;23.90;;
75171;SDS011;63750;52.418;20.742;2022-12-05T09:29:15;30.90;;;23.40;;
75171;SDS011;63750;52.418;20.742;2022-12-05T09:31:46;29.90;;;24.20;;
75171;SDS011;63750;52.418;20.742;2022-12-05T09:34:15;29.50;;;23.30;;
75171;SDS011;63750;52.418;20.742;2022-12-05T09:36:45;31.80;;;24.30;;
75171;SDS011;63750;52.418;20.742;2022-12-05T09:39:16;27.10;;;23.20;;
75171;SDS011;63750;52.418;20.742;2022-12-05T09:41:51;32.90;;;24.30;;
75171;SDS011;63750;52.418;20.742;2022-12-05T09:44:51;28.10;;;23.70;;
75171;SDS011;63750;52.418;20.742;2022-12-05T09:47:31;27.70;;;23.50;;
75171;SDS011;63750;52.418;20.742;2022-12-05T09:50:13;29.80;;;23.40;;
75171;SDS011;63750;52.418;20.742;2022-12-05T09:52:49;32.30;;;23.90;;
75171;SDS011;63750;52.418;20.742;2022-12-05T09:55:27;31.20;;;25.00;;
75171;SDS011;63750;52.418;20.742;2022-12-05T09:58:02;30.60;;;23.70;;
75171;SDS011;63750;52.418;20.742;2022-12-05T10:00:44;31.10;;;24.30;;
75171;SDS011;63750;52.418;20.742;2022-12-05T10:03:21;29.80;;;24.70;;
75171;SDS011;63750;52.418;20.742;2022-12-05T10:05:56;30.40;;;24.60;;
75171;SDS011;63750;52.418;20.742;2022-12-05T10:08:37;31.10;;;24.50;;
75171;SDS011;63750;52.418;20.742;2022-12-05T10:11:16;29.00;;;23.90;;
75171;SDS011;63750;52.418;20.742;2022-12-05T10:13:52;30.00;;;23.30;;
75171;SDS011;63750;52.418;20.742;2022-12-05T10:16:29;30.30;;;23.70;;
75171;SDS011;63750;52.418;20.742;2022-12-05T10:19:05;29.20;;;23.90;;
75171;SDS011;63750;52.418;20.742;2022-12-05T10:21:38;30.80;;;24.40;;
75171;SDS011;63750;52.418;20.742;2022-12-05T10:24:16;31.10;;;24.80;;
75171;SDS011;63750;52.418;20.742;2022-12-05T10:26:50;28.40;;;24.70;;
75171;SDS011;63750;52.418;20.742;2022-12-05T10:29:25;30.20;;;24.50;;
75171;SDS011;63750;52.418;20.742;2022-12-05T10:31:59;30.20;;;24.80;;
75171;SDS011;63750;52.418;20.742;2022-12-05T10:34:33;34.20;;;25.30;;
75171;SDS011;63750;52.418;20.742;2022-12-05T10:37:08;31.10;;;25.40;;
75171;SDS011;63750;52.418;20.742;2022-12-05T10:39:41;35.60;;;26.00;;
75171;SDS011;63750;52.418;20.742;2022-12-05T10:42:13;35.10;;;27.20;;
75171;SDS011;63750;52.418;20.742;2022-12-05T10:44:44;33.60;;;26.80;;
75171;SDS011;63750;52.418;20.742;2022-12-05T10:47:14;33.10;;;25.70;;
75171;SDS011;63750;52.418;20.742;2022-12-05T10:49:43;33.60;;;25.30;;
75171;SDS011;63750;52.418;20.742;2022-12-05T10:52:12;34.30;;;26.40;;
75171;SDS011;63750;52.418;20.742;2022-12-05T10:54:41;36.60;;;27.20;;
75171;SDS011;63750;52.418;20.742;2022-12-05T10:57:20;33.30;;;26.40;;
75171;SDS011;63750;52.418;20.742;2022-12-05T10:59:50;33.60;;;25.90;;
75171;SDS011;63750;52.418;20.742;2022-12-05T11:02:20;34.90;;;25.60;;
75171;SDS011;63750;52.418;20.742;2022-12-05T11:04:51;34.20;;;26.40;;
75171;SDS011;63750;52.418;20.742;2022-12-05T11:07:25;36.30;;;27.60;;
75171;SDS011;63750;52.418;20.742;2022-12-05T11:09:56;34.10;;;26.10;;
75171;SDS011;63750;52.418;20.742;2022-12-05T11:12:27;35.00;;;27.50;;
75171;SDS011;63750;52.418;20.742;2022-12-05T11:15:03;35.70;;;27.10;;
75171;SDS011;63750;52.418;20.742;2022-12-05T11:17:44;35.90;;;27.40;;
75171;SDS011;63750;52.418;20.742;2022-12-05T11:23:19;37.70;;;26.80;;
75171;SDS011;63750;52.418;20.742;2022-12-05T11:25:51;32.50;;;25.90;;
75171;SDS011;63750;52.418;20.742;2022-12-05T11:28:27;34.70;;;26.60;;
75171;SDS011;63750;52.418;20.742;2022-12-05T11:30:58;34.50;;;26.30;;
75171;SDS011;63750;52.418;20.742;2022-12-05T11:33:29;37.80;;;28.70;;
75171;SDS011;63750;52.418;20.742;2022-12-05T11:36:00;37.70;;;27.00;;
75171;SDS011;63750;52.418;20.742;2022-12-05T11:38:37;37.40;;;27.20;;
75171;SDS011;63750;52.418;20.742;2022-12-05T11:41:12;33.50;;;26.30;;
75171;SDS011;63750;52.418;20.742;2022-12-05T11:43:57;35.10;;;26.70;;
75171;SDS011;63750;52.418;20.742;2022-12-05T11:46:38;36.80;;;28.00;;
75171;SDS011;63750;52.418;20.742;2022-12-05T11:49:25;33.10;;;26.00;;
75171;SDS011;63750;52.418;20.742;2022-12-05T11:52:06;33.90;;;25.90;;
75171;SDS011;63750;52.418;20.742;2022-12-05T11:54:52;35.10;;;26.20;;
75171;SDS011;63750;52.418;20.742;2022-12-05T11:57:32;34.50;;;26.00;;
75171;SDS011;63750;52.418;20.742;2022-12-05T12:00:17;34.30;;;26.10;;
75171;SDS011;63750;52.418;20.742;2022-12-05T12:02:54;35.80;;;27.50;;
75171;SDS011;63750;52.418;20.742;2022-12-05T12:05:58;37.30;;;26.30;;
75171;SDS011;63750;52.418;20.742;2022-12-05T12:08:41;33.50;;;27.30;;
75171;SDS011;63750;52.418;20.742;2022-12-05T12:11:22;37.20;;;27.60;;
75171;SDS011;63750;52.418;20.742;2022-12-05T12:13:58;35.20;;;27.60;;
75171;SDS011;63750;52.418;20.742;2022-12-05T12:16:34;38.90;;;29.00;;
75171;SDS011;63750;52.418;20.742;2022-12-05T12:22:10;38.30;;;28.40;;
75171;SDS011;63750;52.418;20.742;2022-12-05T12:24:56;35.40;;;27.00;;
75171;SDS011;63750;52.418;20.742;2022-12-05T12:27:40;36.20;;;28.10;;
75171;SDS011;63750;52.418;20.742;2022-12-05T12:30:18;40.10;;;29.10;;
75171;SDS011;63750;52.418;20.742;2022-12-05T12:32:57;38.50;;;28.70;;
75171;SDS011;63750;52.418;20.742;2022-12-05T12:35:34;36.30;;;28.20;;
75171;SDS011;63750;52.418;20.742;2022-12-05T12:38:16;39.60;;;28.10;;
75171;SDS011;63750;52.418;20.742;2022-12-05T12:40:59;37.00;;;29.00;;
75171;SDS011;63750;52.418;20.742;2022-12-05T12:43:40;40.40;;;27.80;;
75171;SDS011;63750;52.418;20.742;2022-12-05T12:46:31;36.90;;;28.10;;
75171;SDS011;63750;52.418;20.742;2022-12-05T12:49:20;39.70;;;29.20;;
75171;SDS011;63750;52.418;20.742;2022-12-05T12:52:11;39.00;;;29.30;;
75171;SDS011;63750;52.418;20.742;2022-12-05T12:57:46;42.90;;;30.10;;
75171;SDS011;63750;52.418;20.742;2022-12-05T13:00:25;42.30;;;29.60;;
75171;SDS011;63750;52.418;20.742;2022-12-05T13:03:04;40.50;;;30.10;;
75171;SDS011;63750;52.418;20.742;2022-12-05T13:05:40;41.30;;;29.20;;
75171;SDS011;63750;52.418;20.742;2022-12-05T13:08:13;42.40;;;29.70;;
75171;SDS011;63750;52.418;20.742;2022-12-05T13:10:48;41.70;;;30.20;;
75171;SDS011;63750;52.418;20.742;2022-12-05T13:13:20;39.80;;;30.40;;
75171;SDS011;63750;52.418;20.742;2022-12-05T13:15:53;43.30;;;29.80;;
75171;SDS011;63750;52.418;20.742;2022-12-05T13:18:24;41.50;;;30.30;;
75171;SDS011;63750;52.418;20.742;2022-12-05T13:20:56;44.20;;;30.50;;
75171;SDS011;63750;52.418;20.742;2022-12-05T13:23:26;39.20;;;30.60;;
75171;SDS011;63750;52.418;20.742;2022-12-05T13:25:59;42.60;;;31.90;;
75171;SDS011;63750;52.418;20.742;2022-12-05T13:28:34;46.20;;;31.40;;
75171;SDS011;63750;52.418;20.742;2022-12-05T13:31:05;47.10;;;32.50;;
75171;SDS011;63750;52.418;20.742;2022-12-05T13:33:41;45.90;;;32.80;;
75171;SDS011;63750;52.418;20.742;2022-12-05T13:36:13;45.20;;;31.10;;
75171;SDS011;63750;52.418;20.742;2022-12-05T13:38:44;42.20;;;31.30;;
75171;SDS011;63750;52.418;20.742;2022-12-05T13:41:13;41.60;;;29.70;;
75171;SDS011;63750;52.418;20.742;2022-12-05T13:43:43;43.90;;;32.10;;
75171;SDS011;63750;52.418;20.742;2022-12-05T13:46:19;44.70;;;31.30;;
75171;SDS011;63750;52.418;20.742;2022-12-05T13:48:56;43.60;;;31.90;;
75171;SDS011;63750;52.418;20.742;2022-12-05T13:51:30;43.80;;;32.60;;
75171;SDS011;63750;52.418;20.742;2022-12-05T13:54:02;48.30;;;32.80;;
75171;SDS011;63750;52.418;20.742;2022-12-05T13:56:47;44.10;;;31.60;;
75171;SDS011;63750;52.418;20.742;2022-12-05T14:11:12;43.50;;;31.00;;
75171;SDS011;63750;52.418;20.742;2022-12-05T14:13:42;49.10;;;33.00;;
75171;SDS011;63750;52.418;20.742;2022-12-05T14:19:09;44.80;;;31.10;;
75171;SDS011;63750;52.418;20.742;2022-12-05T14:21:52;47.90;;;32.90;;
75171;SDS011;63750;52.418;20.742;2022-12-05T14:24:31;52.30;;;32.60;;
75171;SDS011;63750;52.418;20.742;2022-12-05T14:27:06;49.20;;;32.40;;
75171;SDS011;63750;52.418;20.742;2022-12-05T14:29:46;47.00;;;32.50;;
75171;SDS011;63750;52.418;20.742;2022-12-05T14:32:28;45.30;;;33.20;;
75171;SDS011;63750;52.418;20.742;2022-12-05T14:35:03;43.50;;;31.20;;
75171;SDS011;63750;52.418;20.742;2022-12-05T14:37:38;52.80;;;35.90;;
75171;SDS011;63750;52.418;20.742;2022-12-05T14:40:17;51.10;;;35.70;;
75171;SDS011;63750;52.418;20.742;2022-12-05T14:42:53;50.70;;;33.30;;
75171;SDS011;63750;52.418;20.742;2022-12-05T14:45:25;43.60;;;31.00;;
75171;SDS011;63750;52.418;20.742;2022-12-05T14:47:57;44.80;;;30.70;;
75171;SDS011;63750;52.418;20.742;2022-12-05T14:53:23;45.20;;;30.90;;
75171;SDS011;63750;52.418;20.742;2022-12-05T14:56:10;46.00;;;32.20;;
75171;SDS011;63750;52.418;20.742;2022-12-05T14:58:43;42.30;;;31.80;;
75171;SDS011;63750;52.418;20.742;2022-12-05T15:01:16;45.10;;;30.90;;
75171;SDS011;63750;52.418;20.742;2022-12-05T15:03:56;46.20;;;31.90;;
75171;SDS011;63750;52.418;20.742;2022-12-05T15:06:49;45.70;;;31.30;;
75171;SDS011;63750;52.418;20.742;2022-12-05T15:09:36;45.30;;;32.70;;
75171;SDS011;63750;52.418;20.742;2022-12-05T15:12:15;44.70;;;32.30;;
75171;SDS011;63750;52.418;20.742;2022-12-05T15:14:49;45.80;;;33.30;;
75171;SDS011;63750;52.418;20.742;2022-12-05T15:17:26;44.60;;;32.70;;
75171;SDS011;63750;52.418;20.742;2022-12-05T15:20:03;46.70;;;31.80;;
75171;SDS011;63750;52.418;20.742;2022-12-05T15:22:37;46.40;;;31.50;;